sensor_id;sensor_type;location;lat;lon;timestamp;pressure;altitude;pressure_sealevel;temperature;humidity
5952;BME280;3001;42.622;23.194;2023-03-01T00:00:52;91628.53;;;9.24;94.96
5952;BME280;3001;42.622;23.194;2023-03-01T00:03:18;91624.88;;;9.25;94.85
5952;BME280;3001;42.622;23.194;2023-03-01T00:05:45;91625.38;;;9.27;94.64
5952;BME280;3001;42.622;23.194;2023-03-01T00:08:13;91615.72;;;9.14;94.95
5952;BME280;3001;42.622;23.194;2023-03-01T00:10:40;91608.63;;;9.20;94.33
5952;BME280;3001;42.622;23.194;2023-03-01T00:13:07;91600.94;;;9.15;94.08
5952;BME280;3001;42.622;23.194;2023-03-01T00:15:38;91598.59;;;9.00;95.12
5952;BME280;3001;42.622;23.194;2023-03-01T00:18:04;91592.41;;;9.14;94.72
5952;BME280;3001;42.622;23.194;2023-03-01T00:20:31;91593.25;;;9.10;94.40
5952;BME280;3001;42.622;23.194;2023-03-01T00:22:58;91586.94;;;9.16;94.28
5952;BME280;3001;42.622;23.194;2023-03-01T00:25:26;91579.25;;;9.11;94.22
5952;BME280;3001;42.622;23.194;2023-03-01T00:27:52;91571.53;;;9.06;94.30
5952;BME280;3001;42.622;23.194;2023-03-01T00:30:19;91575.50;;;9.03;94.30
5952;BME280;3001;42.622;23.194;2023-03-01T00:32:46;91566.22;;;8.97;94.63
5952;BME280;3001;42.622;23.194;2023-03-01T00:35:13;91572.94;;;8.98;94.28
5952;BME280;3001;42.622;23.194;2023-03-01T00:37:39;91560.69;;;9.04;94.15
5952;BME280;3001;42.622;23.194;2023-03-01T00:40:08;91565.00;;;8.95;94.67
5952;BME280;3001;42.622;23.194;2023-03-01T00:42:36;91572.06;;;8.89;94.94
5952;BME280;3001;42.622;23.194;2023-03-01T00:45:04;91565.47;;;8.97;94.48
5952;BME280;3001;42.622;23.194;2023-03-01T00:47:33;91583.69;;;8.92;94.98
5952;BME280;3001;42.622;23.194;2023-03-01T00:49:59;91575.63;;;8.93;94.35
5952;BME280;3001;42.622;23.194;2023-03-01T00:52:26;91567.09;;;8.93;94.32
5952;BME280;3001;42.622;23.194;2023-03-01T00:54:53;91577.03;;;8.86;94.52
5952;BME280;3001;42.622;23.194;2023-03-01T00:57:20;91578.66;;;8.82;95.01
5952;BME280;3001;42.622;23.194;2023-03-01T00:59:48;91584.69;;;8.77;94.74
5952;BME280;3001;42.622;23.194;2023-03-01T01:02:15;91582.09;;;8.77;94.51
5952;BME280;3001;42.622;23.194;2023-03-01T01:04:41;91582.59;;;8.79;94.34
5952;BME280;3001;42.622;23.194;2023-03-01T01:07:08;91592.97;;;8.79;94.51
5952;BME280;3001;42.622;23.194;2023-03-01T01:09:35;91598.97;;;8.75;94.83
5952;BME280;3001;42.622;23.194;2023-03-01T01:12:02;91593.09;;;8.69;95.12
5952;BME280;3001;42.622;23.194;2023-03-01T01:14:29;91583.31;;;8.66;95.19
5952;BME280;3001;42.622;23.194;2023-03-01T01:16:57;91574.47;;;8.67;95.17
5952;BME280;3001;42.622;23.194;2023-03-01T01:19:25;91563.84;;;8.51;94.91
5952;BME280;3001;42.622;23.194;2023-03-01T01:21:52;91589.75;;;8.51;94.99
5952;BME280;3001;42.622;23.194;2023-03-01T01:24:19;91573.78;;;8.44;95.66
5952;BME280;3001;42.622;23.194;2023-03-01T01:26:46;91582.28;;;8.49;95.16
5952;BME280;3001;42.622;23.194;2023-03-01T01:29:13;91592.19;;;8.42;95.78
5952;BME280;3001;42.622;23.194;2023-03-01T01:31:41;91582.53;;;8.48;95.10
5952;BME280;3001;42.622;23.194;2023-03-01T01:34:15;91591.50;;;8.55;95.60
5952;BME280;3001;42.622;23.194;2023-03-01T01:36:43;91583.72;;;8.55;95.77
5952;BME280;3001;42.622;23.194;2023-03-01T01:39:10;91579.53;;;8.59;94.96
5952;BME280;3001;42.622;23.194;2023-03-01T01:41:39;91587.03;;;8.60;95.36
5952;BME280;3001;42.622;23.194;2023-03-01T01:44:17;91592.25;;;8.55;95.81
5952;BME280;3001;42.622;23.194;2023-03-01T01:46:47;91586.59;;;8.53;95.88
5952;BME280;3001;42.622;23.194;2023-03-01T01:49:31;91595.41;;;8.52;96.11
5952;BME280;3001;42.622;23.194;2023-03-01T01:52:09;91590.22;;;8.52;95.72
5952;BME280;3001;42.622;23.194;2023-03-01T01:54:42;91588.75;;;8.47;96.29
5952;BME280;3001;42.622;23.194;2023-03-01T01:57:12;91585.19;;;8.43;96.69
5952;BME280;3001;42.622;23.194;2023-03-01T01:59:43;91580.03;;;8.43;96.41
5952;BME280;3001;42.622;23.194;2023-03-01T02:02:12;91573.78;;;8.44;96.10
5952;BME280;3001;42.622;23.194;2023-03-01T02:04:41;91559.88;;;8.40;96.14
5952;BME280;3001;42.622;23.194;2023-03-01T02:07:14;91554.97;;;8.38;96.96
5952;BME280;3001;42.622;23.194;2023-03-01T02:09:42;91549.78;;;8.38;95.89
5952;BME280;3001;42.622;23.194;2023-03-01T02:12:12;91538.88;;;8.41;95.66
5952;BME280;3001;42.622;23.194;2023-03-01T02:14:40;91541.69;;;8.45;95.17
5952;BME280;3001;42.622;23.194;2023-03-01T02:17:06;91534.41;;;8.47;95.13
5952;BME280;3001;42.622;23.194;2023-03-01T02:19:44;91542.38;;;8.50;94.91
5952;BME280;3001;42.622;23.194;2023-03-01T02:22:20;91535.84;;;8.52;94.65
5952;BME280;3001;42.622;23.194;2023-03-01T02:24:57;91541.75;;;8.58;94.58
5952;BME280;3001;42.622;23.194;2023-03-01T02:27:35;91544.19;;;8.50;95.01
5952;BME280;3001;42.622;23.194;2023-03-01T02:30:06;91545.03;;;8.45;95.26
5952;BME280;3001;42.622;23.194;2023-03-01T02:32:33;91541.31;;;8.33;95.54
5952;BME280;3001;42.622;23.194;2023-03-01T02:35:01;91541.53;;;8.36;95.00
5952;BME280;3001;42.622;23.194;2023-03-01T02:37:28;91531.53;;;8.30;95.21
5952;BME280;3001;42.622;23.194;2023-03-01T02:39:58;91530.97;;;8.33;95.01
5952;BME280;3001;42.622;23.194;2023-03-01T02:42:29;91533.84;;;8.31;95.70
5952;BME280;3001;42.622;23.194;2023-03-01T02:44:57;91530.97;;;8.33;95.17
5952;BME280;3001;42.622;23.194;2023-03-01T02:47:25;91531.75;;;8.33;95.28
5952;BME280;3001;42.622;23.194;2023-03-01T02:49:52;91531.06;;;8.28;95.32
5952;BME280;3001;42.622;23.194;2023-03-01T02:52:39;91528.53;;;8.23;95.45
5952;BME280;3001;42.622;23.194;2023-03-01T02:55:11;91539.88;;;8.27;95.07
5952;BME280;3001;42.622;23.194;2023-03-01T02:57:40;91537.06;;;8.23;95.44
5952;BME280;3001;42.622;23.194;2023-03-01T03:00:10;91529.03;;;8.25;95.42
5952;BME280;3001;42.622;23.194;2023-03-01T03:02:46;91530.16;;;8.14;95.92
5952;BME280;3001;42.622;23.194;2023-03-01T03:05:16;91532.44;;;8.20;95.51
5952;BME280;3001;42.622;23.194;2023-03-01T03:07:45;91531.41;;;8.21;94.86
5952;BME280;3001;42.622;23.194;2023-03-01T03:10:13;91530.34;;;8.22;94.96
5952;BME280;3001;42.622;23.194;2023-03-01T03:12:41;91528.63;;;8.18;94.88
5952;BME280;3001;42.622;23.194;2023-03-01T03:15:09;91533.31;;;8.11;95.35
5952;BME280;3001;42.622;23.194;2023-03-01T03:17:39;91532.00;;;8.13;95.48
5952;BME280;3001;42.622;23.194;2023-03-01T03:20:09;91539.19;;;8.16;95.05
5952;BME280;3001;42.622;23.194;2023-03-01T03:22:37;91533.13;;;8.07;95.92
5952;BME280;3001;42.622;23.194;2023-03-01T03:25:05;91534.03;;;8.16;95.26
5952;BME280;3001;42.622;23.194;2023-03-01T03:27:35;91527.56;;;8.19;95.45
5952;BME280;3001;42.622;23.194;2023-03-01T03:30:03;91528.94;;;8.30;94.60
5952;BME280;3001;42.622;23.194;2023-03-01T03:32:34;91526.94;;;8.27;94.47
5952;BME280;3001;42.622;23.194;2023-03-01T03:35:01;91530.16;;;8.19;94.82
5952;BME280;3001;42.622;23.194;2023-03-01T03:37:30;91534.22;;;8.25;94.45
5952;BME280;3001;42.622;23.194;2023-03-01T03:40:19;91539.94;;;8.22;94.63
5952;BME280;3001;42.622;23.194;2023-03-01T03:42:46;91536.50;;;8.26;94.60
5952;BME280;3001;42.622;23.194;2023-03-01T03:45:13;91538.06;;;8.27;94.22
5952;BME280;3001;42.622;23.194;2023-03-01T03:47:40;91541.13;;;8.29;93.93
5952;BME280;3001;42.622;23.194;2023-03-01T03:50:08;91532.75;;;8.19;94.34
5952;BME280;3001;42.622;23.194;2023-03-01T03:52:37;91534.75;;;8.22;94.41
5952;BME280;3001;42.622;23.194;2023-03-01T03:55:04;91535.53;;;8.22;94.43
5952;BME280;3001;42.622;23.194;2023-03-01T03:57:34;91539.66;;;8.23;94.33
5952;BME280;3001;42.622;23.194;2023-03-01T04:00:02;91540.69;;;8.22;94.01
5952;BME280;3001;42.622;23.194;2023-03-01T04:02:30;91547.41;;;8.23;93.97
5952;BME280;3001;42.622;23.194;2023-03-01T04:04:57;91550.22;;;8.27;93.98
5952;BME280;3001;42.622;23.194;2023-03-01T04:07:24;91553.63;;;8.22;94.52
5952;BME280;3001;42.622;23.194;2023-03-01T04:09:52;91543.28;;;8.22;94.57
5952;BME280;3001;42.622;23.194;2023-03-01T04:12:18;91548.75;;;8.21;94.42
5952;BME280;3001;42.622;23.194;2023-03-01T04:14:48;91551.34;;;8.16;94.83
5952;BME280;3001;42.622;23.194;2023-03-01T04:17:15;91553.19;;;8.15;95.15
5952;BME280;3001;42.622;23.194;2023-03-01T04:19:41;91551.34;;;8.16;95.18
5952;BME280;3001;42.622;23.194;2023-03-01T04:22:09;91549.63;;;8.11;95.12
5952;BME280;3001;42.622;23.194;2023-03-01T04:24:36;91543.19;;;8.09;95.59
5952;BME280;3001;42.622;23.194;2023-03-01T04:27:04;91553.19;;;8.15;95.17
5952;BME280;3001;42.622;23.194;2023-03-01T04:29:31;91550.06;;;8.18;94.99
5952;BME280;3001;42.622;23.194;2023-03-01T04:31:58;91548.84;;;8.11;95.65
5952;BME280;3001;42.622;23.194;2023-03-01T04:34:24;91544.66;;;8.15;95.18
5952;BME280;3001;42.622;23.194;2023-03-01T04:36:52;91544.91;;;8.18;94.95
5952;BME280;3001;42.622;23.194;2023-03-01T04:39:18;91541.75;;;8.21;94.36
5952;BME280;3001;42.622;23.194;2023-03-01T04:41:45;91543.09;;;8.19;94.55
5952;BME280;3001;42.622;23.194;2023-03-01T04:44:13;91544.22;;;8.08;94.99
5952;BME280;3001;42.622;23.194;2023-03-01T04:46:40;91544.50;;;8.06;95.23
5952;BME280;3001;42.622;23.194;2023-03-01T04:49:07;91544.72;;;8.10;94.83
5952;BME280;3001;42.622;23.194;2023-03-01T04:51:33;91541.09;;;8.11;94.77
5952;BME280;3001;42.622;23.194;2023-03-01T04:54:00;91546.88;;;8.03;95.30
5952;BME280;3001;42.622;23.194;2023-03-01T04:56:27;91541.16;;;8.06;95.08
5952;BME280;3001;42.622;23.194;2023-03-01T04:58:54;91540.88;;;8.07;94.81
5952;BME280;3001;42.622;23.194;2023-03-01T05:01:22;91538.63;;;8.01;95.26
5952;BME280;3001;42.622;23.194;2023-03-01T05:03:51;91537.09;;;8.00;95.42
5952;BME280;3001;42.622;23.194;2023-03-01T05:06:19;91546.41;;;8.01;95.61
5952;BME280;3001;42.622;23.194;2023-03-01T05:08:46;91537.94;;;7.95;95.78
5952;BME280;3001;42.622;23.194;2023-03-01T05:11:12;91549.63;;;8.11;95.49
5952;BME280;3001;42.622;23.194;2023-03-01T05:13:39;91553.47;;;8.14;94.91
5952;BME280;3001;42.622;23.194;2023-03-01T05:16:07;91555.00;;;8.15;95.17
5952;BME280;3001;42.622;23.194;2023-03-01T05:18:37;91557.56;;;8.20;94.73
5952;BME280;3001;42.622;23.194;2023-03-01T05:21:06;91561.97;;;8.19;94.43
5952;BME280;3001;42.622;23.194;2023-03-01T05:23:34;91563.78;;;8.19;94.80
5952;BME280;3001;42.622;23.194;2023-03-01T05:26:02;91568.09;;;8.23;94.63
5952;BME280;3001;42.622;23.194;2023-03-01T05:28:29;91559.13;;;8.16;95.11
5952;BME280;3001;42.622;23.194;2023-03-01T05:30:57;91562.50;;;8.16;95.37
5952;BME280;3001;42.622;23.194;2023-03-01T05:33:24;91562.50;;;8.16;95.04
5952;BME280;3001;42.622;23.194;2023-03-01T05:35:53;91562.75;;;8.20;94.98
5952;BME280;3001;42.622;23.194;2023-03-01T05:38:20;91565.25;;;8.25;94.72
5952;BME280;3001;42.622;23.194;2023-03-01T05:40:48;91561.88;;;8.24;94.56
5952;BME280;3001;42.622;23.194;2023-03-01T05:43:16;91567.34;;;8.23;94.69
5952;BME280;3001;42.622;23.194;2023-03-01T05:45:43;91576.66;;;8.24;95.06
5952;BME280;3001;42.622;23.194;2023-03-01T05:48:11;91580.09;;;8.38;94.33
5952;BME280;3001;42.622;23.194;2023-03-01T05:50:39;91583.53;;;8.33;94.16
5952;BME280;3001;42.622;23.194;2023-03-01T05:53:10;91585.53;;;8.36;94.76
5952;BME280;3001;42.622;23.194;2023-03-01T05:55:38;91575.47;;;8.35;94.62
5952;BME280;3001;42.622;23.194;2023-03-01T05:58:06;91582.81;;;8.28;94.47
5952;BME280;3001;42.622;23.194;2023-03-01T06:00:33;91593.97;;;8.23;94.39
5952;BME280;3001;42.622;23.194;2023-03-01T06:03:01;91600.22;;;8.22;94.26
5952;BME280;3001;42.622;23.194;2023-03-01T06:05:28;91599.47;;;8.17;94.62
5952;BME280;3001;42.622;23.194;2023-03-01T06:07:56;91605.13;;;8.24;94.66
5952;BME280;3001;42.622;23.194;2023-03-01T06:10:26;91607.06;;;8.32;94.58
5952;BME280;3001;42.622;23.194;2023-03-01T06:12:53;91614.84;;;8.32;94.04
5952;BME280;3001;42.622;23.194;2023-03-01T06:15:20;91617.22;;;8.28;94.42
5952;BME280;3001;42.622;23.194;2023-03-01T06:17:48;91617.22;;;8.28;94.62
5952;BME280;3001;42.622;23.194;2023-03-01T06:20:17;91619.81;;;8.28;94.85
5952;BME280;3001;42.622;23.194;2023-03-01T06:22:44;91619.59;;;8.25;95.27
5952;BME280;3001;42.622;23.194;2023-03-01T06:25:13;91614.66;;;8.28;94.76
5952;BME280;3001;42.622;23.194;2023-03-01T06:27:41;91625.50;;;8.30;94.48
5952;BME280;3001;42.622;23.194;2023-03-01T06:30:10;91619.66;;;8.20;95.06
5952;BME280;3001;42.622;23.194;2023-03-01T06:32:37;91622.56;;;8.13;95.43
5952;BME280;3001;42.622;23.194;2023-03-01T06:35:08;91612.94;;;8.19;95.21
5952;BME280;3001;42.622;23.194;2023-03-01T06:37:34;91616.72;;;8.26;95.12
5952;BME280;3001;42.622;23.194;2023-03-01T06:40:01;91625.50;;;8.30;95.36
5952;BME280;3001;42.622;23.194;2023-03-01T06:42:32;91616.19;;;8.29;95.34
5952;BME280;3001;42.622;23.194;2023-03-01T06:45:00;91625.00;;;8.28;95.13
5952;BME280;3001;42.622;23.194;2023-03-01T06:47:27;91618.28;;;8.27;95.65
5952;BME280;3001;42.622;23.194;2023-03-01T06:49:53;91626.53;;;8.29;95.91
5952;BME280;3001;42.622;23.194;2023-03-01T06:52:20;91628.34;;;8.29;95.76
5952;BME280;3001;42.622;23.194;2023-03-01T06:54:47;91625.50;;;8.30;96.16
5952;BME280;3001;42.622;23.194;2023-03-01T06:57:13;91626.69;;;8.38;95.88
5952;BME280;3001;42.622;23.194;2023-03-01T06:59:40;91629.47;;;8.41;95.33
5952;BME280;3001;42.622;23.194;2023-03-01T07:02:10;91627.22;;;8.35;95.65
5952;BME280;3001;42.622;23.194;2023-03-01T07:04:36;91624.13;;;8.33;95.92
5952;BME280;3001;42.622;23.194;2023-03-01T07:07:03;91627.72;;;8.37;95.87
5952;BME280;3001;42.622;23.194;2023-03-01T07:09:30;91632.63;;;8.38;95.54
5952;BME280;3001;42.622;23.194;2023-03-01T07:11:57;91629.41;;;8.46;95.39
5952;BME280;3001;42.622;23.194;2023-03-01T07:14:24;91626.53;;;8.48;95.42
5952;BME280;3001;42.622;23.194;2023-03-01T07:16:51;91623.13;;;8.52;95.00
5952;BME280;3001;42.622;23.194;2023-03-01T07:19:19;91628.09;;;8.49;95.22
5952;BME280;3001;42.622;23.194;2023-03-01T07:21:46;91617.31;;;8.42;96.16
5952;BME280;3001;42.622;23.194;2023-03-01T07:24:13;91612.22;;;8.55;95.30
5952;BME280;3001;42.622;23.194;2023-03-01T07:26:39;91618.34;;;8.59;95.41
5952;BME280;3001;42.622;23.194;2023-03-01T07:29:07;91613.75;;;8.56;95.60
5952;BME280;3001;42.622;23.194;2023-03-01T07:31:34;91614.00;;;8.54;95.80
5952;BME280;3001;42.622;23.194;2023-03-01T07:34:01;91610.66;;;8.54;95.49
5952;BME280;3001;42.622;23.194;2023-03-01T07:36:29;91623.88;;;8.52;95.26
5952;BME280;3001;42.622;23.194;2023-03-01T07:38:55;91617.66;;;8.53;95.64
5952;BME280;3001;42.622;23.194;2023-03-01T07:41:23;91617.47;;;8.50;95.95
5952;BME280;3001;42.622;23.194;2023-03-01T07:43:49;91619.97;;;8.55;95.81
5952;BME280;3001;42.622;23.194;2023-03-01T07:46:16;91619.97;;;8.55;95.50
5952;BME280;3001;42.622;23.194;2023-03-01T07:48:44;91619.63;;;8.61;95.55
5952;BME280;3001;42.622;23.194;2023-03-01T07:51:13;91619.56;;;8.66;94.89
5952;BME280;3001;42.622;23.194;2023-03-01T07:53:41;91610.31;;;8.60;95.01
5952;BME280;3001;42.622;23.194;2023-03-01T07:56:10;91605.56;;;8.67;95.24
5952;BME280;3001;42.622;23.194;2023-03-01T07:58:40;91616.41;;;8.69;95.43
5952;BME280;3001;42.622;23.194;2023-03-01T08:01:08;91619.97;;;8.73;94.76
5952;BME280;3001;42.622;23.194;2023-03-01T08:03:36;91602.69;;;8.69;94.92
5952;BME280;3001;42.622;23.194;2023-03-01T08:06:06;91602.31;;;8.75;95.14
5952;BME280;3001;42.622;23.194;2023-03-01T08:08:33;91606.03;;;8.69;95.75
5952;BME280;3001;42.622;23.194;2023-03-01T08:11:04;91597.44;;;8.55;95.66
5952;BME280;3001;42.622;23.194;2023-03-01T08:13:31;91610.09;;;8.75;95.68
5952;BME280;3001;42.622;23.194;2023-03-01T08:16:01;91601.50;;;8.80;95.41
5952;BME280;3001;42.622;23.194;2023-03-01T08:18:28;91597.13;;;8.94;94.77
5952;BME280;3001;42.622;23.194;2023-03-01T08:20:55;91606.63;;;8.98;94.58
5952;BME280;3001;42.622;23.194;2023-03-01T08:23:22;91606.09;;;9.01;93.52
5952;BME280;3001;42.622;23.194;2023-03-01T08:25:48;91611.81;;;8.98;94.16
5952;BME280;3001;42.622;23.194;2023-03-01T08:28:16;91609.53;;;8.97;94.17
5952;BME280;3001;42.622;23.194;2023-03-01T08:30:43;91607.28;;;9.09;93.19
5952;BME280;3001;42.622;23.194;2023-03-01T08:33:10;91602.84;;;9.09;93.48
5952;BME280;3001;42.622;23.194;2023-03-01T08:35:36;91606.50;;;9.08;94.01
5952;BME280;3001;42.622;23.194;2023-03-01T08:38:03;91603.25;;;9.16;93.55
5952;BME280;3001;42.622;23.194;2023-03-01T08:40:29;91604.69;;;9.09;93.78
5952;BME280;3001;42.622;23.194;2023-03-01T08:42:57;91610.06;;;9.12;93.46
5952;BME280;3001;42.622;23.194;2023-03-01T08:45:25;91597.31;;;9.16;93.41
5952;BME280;3001;42.622;23.194;2023-03-01T08:47:52;91599.78;;;9.07;92.75
5952;BME280;3001;42.622;23.194;2023-03-01T08:50:19;91615.34;;;9.21;92.74
5952;BME280;3001;42.622;23.194;2023-03-01T08:52:46;91614.63;;;9.34;92.41
5952;BME280;3001;42.622;23.194;2023-03-01T08:55:12;91613.28;;;9.36;92.47
5952;BME280;3001;42.622;23.194;2023-03-01T08:57:41;91606.97;;;9.42;92.28
5952;BME280;3001;42.622;23.194;2023-03-01T09:00:09;91607.47;;;9.44;92.48
5952;BME280;3001;42.622;23.194;2023-03-01T09:02:37;91606.88;;;9.47;92.21
5952;BME280;3001;42.622;23.194;2023-03-01T09:05:05;91606.00;;;9.38;92.40
5952;BME280;3001;42.622;23.194;2023-03-01T09:07:32;91607.03;;;9.37;92.17
5952;BME280;3001;42.622;23.194;2023-03-01T09:09:58;91610.53;;;9.46;92.10
5952;BME280;3001;42.622;23.194;2023-03-01T09:12:25;91609.97;;;9.49;92.21
5952;BME280;3001;42.622;23.194;2023-03-01T09:14:52;91601.50;;;9.57;92.23
5952;BME280;3001;42.622;23.194;2023-03-01T09:17:18;91607.00;;;9.69;91.90
5952;BME280;3001;42.622;23.194;2023-03-01T09:19:48;91600.56;;;9.80;91.39
5952;BME280;3001;42.622;23.194;2023-03-01T09:22:14;91595.31;;;9.85;91.11
5952;BME280;3001;42.622;23.194;2023-03-01T09:24:41;91597.22;;;9.93;90.49
5952;BME280;3001;42.622;23.194;2023-03-01T09:27:08;91603.19;;;9.94;90.23
5952;BME280;3001;42.622;23.194;2023-03-01T09:29:35;91600.66;;;9.89;90.91
5952;BME280;3001;42.622;23.194;2023-03-01T09:32:03;91595.09;;;9.95;90.42
5952;BME280;3001;42.622;23.194;2023-03-01T09:34:30;91588.59;;;9.98;91.03
5952;BME280;3001;42.622;23.194;2023-03-01T09:37:18;91586.97;;;10.02;90.15
5952;BME280;3001;42.622;23.194;2023-03-01T09:39:45;91588.41;;;10.08;90.00
5952;BME280;3001;42.622;23.194;2023-03-01T09:42:12;91586.38;;;10.18;89.58
5952;BME280;3001;42.622;23.194;2023-03-01T09:44:45;91588.59;;;10.25;88.81
5952;BME280;3001;42.622;23.194;2023-03-01T09:47:17;91585.22;;;10.24;88.58
5952;BME280;3001;42.622;23.194;2023-03-01T09:49:50;91585.31;;;10.32;88.68
5952;BME280;3001;42.622;23.194;2023-03-01T09:52:28;91585.41;;;10.27;87.54
5952;BME280;3001;42.622;23.194;2023-03-01T09:54:57;91570.72;;;10.23;87.20
5952;BME280;3001;42.622;23.194;2023-03-01T09:57:30;91572.22;;;10.37;87.88
5952;BME280;3001;42.622;23.194;2023-03-01T10:00:10;91574.63;;;10.34;88.11
5952;BME280;3001;42.622;23.194;2023-03-01T10:02:42;91570.09;;;10.39;88.19
5952;BME280;3001;42.622;23.194;2023-03-01T10:05:23;91570.00;;;10.44;87.32
5952;BME280;3001;42.622;23.194;2023-03-01T10:08:02;91571.22;;;10.60;86.76
5952;BME280;3001;42.622;23.194;2023-03-01T10:10:34;91568.25;;;10.53;87.01
5952;BME280;3001;42.622;23.194;2023-03-01T10:13:08;91561.03;;;10.50;87.13
5952;BME280;3001;42.622;23.194;2023-03-01T10:15:41;91564.41;;;10.51;86.62
5952;BME280;3001;42.622;23.194;2023-03-01T10:18:12;91561.03;;;10.50;87.06
5952;BME280;3001;42.622;23.194;2023-03-01T10:20:45;91555.28;;;10.53;86.76
5952;BME280;3001;42.622;23.194;2023-03-01T10:23:14;91561.53;;;10.52;86.28
5952;BME280;3001;42.622;23.194;2023-03-01T10:25:49;91561.53;;;10.52;85.95
5952;BME280;3001;42.622;23.194;2023-03-01T10:28:26;91551.63;;;10.41;86.02
5952;BME280;3001;42.622;23.194;2023-03-01T10:30:57;91568.94;;;10.45;85.78
5952;BME280;3001;42.622;23.194;2023-03-01T10:33:27;91562.50;;;10.43;86.00
5952;BME280;3001;42.622;23.194;2023-03-01T10:35:55;91562.00;;;10.41;85.53
5952;BME280;3001;42.622;23.194;2023-03-01T10:38:24;91565.09;;;10.43;86.32
5952;BME280;3001;42.622;23.194;2023-03-01T10:40:53;91562.31;;;10.39;85.38
5952;BME280;3001;42.622;23.194;2023-03-01T10:43:22;91553.47;;;10.40;85.36
5952;BME280;3001;42.622;23.194;2023-03-01T10:45:50;91546.81;;;10.48;84.52
5952;BME280;3001;42.622;23.194;2023-03-01T10:48:19;91547.09;;;10.46;84.76
5952;BME280;3001;42.622;23.194;2023-03-01T10:50:50;91550.34;;;10.52;85.76
5952;BME280;3001;42.622;23.194;2023-03-01T10:53:23;91551.31;;;10.56;85.82
5952;BME280;3001;42.622;23.194;2023-03-01T10:56:03;91547.44;;;10.67;86.12
5952;BME280;3001;42.622;23.194;2023-03-01T10:58:32;91550.03;;;10.67;85.63
5952;BME280;3001;42.622;23.194;2023-03-01T11:01:00;91555.97;;;10.67;85.47
5952;BME280;3001;42.622;23.194;2023-03-01T11:03:29;91564.72;;;10.71;85.46
5952;BME280;3001;42.622;23.194;2023-03-01T11:06:03;91560.66;;;10.79;84.93
5952;BME280;3001;42.622;23.194;2023-03-01T11:08:37;91556.34;;;10.74;84.73
5952;BME280;3001;42.622;23.194;2023-03-01T11:11:10;91559.13;;;10.78;85.08
5952;BME280;3001;42.622;23.194;2023-03-01T11:13:52;91551.50;;;10.81;84.68
5952;BME280;3001;42.622;23.194;2023-03-01T11:16:34;91554.44;;;10.88;84.37
5952;BME280;3001;42.622;23.194;2023-03-01T11:19:15;91547.06;;;10.82;84.21
5952;BME280;3001;42.622;23.194;2023-03-01T11:21:47;91550.56;;;10.77;84.62
5952;BME280;3001;42.622;23.194;2023-03-01T11:24:19;91549.38;;;10.83;84.00
5952;BME280;3001;42.622;23.194;2023-03-01T11:26:52;91547.50;;;10.75;83.58
5952;BME280;3001;42.622;23.194;2023-03-01T11:29:26;91540.09;;;10.69;84.28
5952;BME280;3001;42.622;23.194;2023-03-01T11:31:57;91538.25;;;10.69;84.74
5952;BME280;3001;42.622;23.194;2023-03-01T11:34:35;91524.41;;;10.74;84.74
5952;BME280;3001;42.622;23.194;2023-03-01T11:37:12;91522.16;;;10.81;84.92
5952;BME280;3001;42.622;23.194;2023-03-01T11:39:49;91514.06;;;10.82;84.67
5952;BME280;3001;42.622;23.194;2023-03-01T11:42:20;91519.06;;;11.01;83.55
5952;BME280;3001;42.622;23.194;2023-03-01T11:44:54;91516.69;;;11.13;84.05
5952;BME280;3001;42.622;23.194;2023-03-01T11:47:30;91502.22;;;11.20;83.71
5952;BME280;3001;42.622;23.194;2023-03-01T11:50:19;91501.81;;;11.27;84.40
5952;BME280;3001;42.622;23.194;2023-03-01T11:52:59;91498.31;;;11.40;83.25
5952;BME280;3001;42.622;23.194;2023-03-01T11:55:47;91497.91;;;11.46;82.96
5952;BME280;3001;42.622;23.194;2023-03-01T11:58:29;91493.91;;;11.40;82.70
5952;BME280;3001;42.622;23.194;2023-03-01T12:01:09;91499.28;;;11.44;83.07
5952;BME280;3001;42.622;23.194;2023-03-01T12:04:08;91501.56;;;11.45;82.79
5952;BME280;3001;42.622;23.194;2023-03-01T12:06:52;91502.91;;;11.34;83.38
5952;BME280;3001;42.622;23.194;2023-03-01T12:09:38;91499.81;;;11.32;82.90
5952;BME280;3001;42.622;23.194;2023-03-01T12:12:25;91502.47;;;11.41;82.41
5952;BME280;3001;42.622;23.194;2023-03-01T12:15:02;91495.75;;;11.48;82.40
5952;BME280;3001;42.622;23.194;2023-03-01T12:17:47;91506.91;;;11.40;82.62
5952;BME280;3001;42.622;23.194;2023-03-01T12:20:26;91499.38;;;11.39;81.62
5952;BME280;3001;42.622;23.194;2023-03-01T12:23:07;91501.81;;;11.57;80.67
5952;BME280;3001;42.622;23.194;2023-03-01T12:25:45;91492.41;;;11.48;80.83
5952;BME280;3001;42.622;23.194;2023-03-01T12:28:44;91493.09;;;11.62;80.55
5952;BME280;3001;42.622;23.194;2023-03-01T12:31:38;91496.47;;;11.62;79.98
5952;BME280;3001;42.622;23.194;2023-03-01T12:34:16;91495.81;;;11.57;80.34
5952;BME280;3001;42.622;23.194;2023-03-01T12:37:03;91490.75;;;11.52;81.21
5952;BME280;3001;42.622;23.194;2023-03-01T12:39:48;91494.47;;;11.59;80.87
5952;BME280;3001;42.622;23.194;2023-03-01T12:42:25;91489.41;;;11.63;80.25
5952;BME280;3001;42.622;23.194;2023-03-01T12:45:14;91491.09;;;11.59;80.55
5952;BME280;3001;42.622;23.194;2023-03-01T12:47:58;91491.41;;;11.57;79.02
5952;BME280;3001;42.622;23.194;2023-03-01T12:50:37;91480.78;;;11.54;79.94
5952;BME280;3001;42.622;23.194;2023-03-01T12:53:17;91485.72;;;11.55;80.15
5952;BME280;3001;42.622;23.194;2023-03-01T12:55:47;91491.56;;;11.61;80.78
5952;BME280;3001;42.622;23.194;2023-03-01T12:58:23;91494.97;;;11.70;80.53
5952;BME280;3001;42.622;23.194;2023-03-01T13:01:04;91498.63;;;11.69;80.32
5952;BME280;3001;42.622;23.194;2023-03-01T13:03:42;91494.97;;;11.70;79.98
5952;BME280;3001;42.622;23.194;2023-03-01T13:06:16;91494.03;;;11.74;79.55
5952;BME280;3001;42.622;23.194;2023-03-01T13:08:49;91496.06;;;11.77;78.66
5952;BME280;3001;42.622;23.194;2023-03-01T13:11:22;91499.84;;;11.71;79.16
5952;BME280;3001;42.622;23.194;2023-03-01T13:13:50;91498.75;;;11.64;79.29
5952;BME280;3001;42.622;23.194;2023-03-01T13:19:09;91495.22;;;11.60;79.25
5952;BME280;3001;42.622;23.194;2023-03-01T13:21:37;91503.38;;;11.67;78.44
5952;BME280;3001;42.622;23.194;2023-03-01T13:24:22;91505.28;;;11.53;79.12
5952;BME280;3001;42.622;23.194;2023-03-01T13:27:18;91507.84;;;11.44;79.78
5952;BME280;3001;42.622;23.194;2023-03-01T13:35:54;91504.56;;;11.30;80.58
5952;BME280;3001;42.622;23.194;2023-03-01T13:38:37;91497.25;;;11.41;79.66
5952;BME280;3001;42.622;23.194;2023-03-01T13:41:05;91500.88;;;11.31;79.73
5952;BME280;3001;42.622;23.194;2023-03-01T13:43:34;91495.69;;;11.31;79.62
5952;BME280;3001;42.622;23.194;2023-03-01T13:46:08;91491.50;;;11.22;80.30